sensor_id;sensor_type;location;lat;lon;timestamp;P1;durP1;ratioP1;P2;durP2;ratioP2
3267;SDS011;1646;52.450;13.326;2023-07-09T00:02:22;7.00;;;3.60;;
3267;SDS011;1646;52.450;13.326;2023-07-09T00:07:23;4.93;;;3.07;;
3267;SDS011;1646;52.450;13.326;2023-07-09T00:12:24;4.90;;;3.57;;
3267;SDS011;1646;52.450;13.326;2023-07-09T00:17:25;6.27;;;3.70;;
3267;SDS011;1646;52.450;13.326;2023-07-09T00:22:25;3.33;;;3.03;;
3267;SDS011;1646;52.450;13.326;2023-07-09T00:27:25;4.17;;;3.40;;
3267;SDS011;1646;52.450;13.326;2023-07-09T00:32:28;6.40;;;3.40;;
3267;SDS011;1646;52.450;13.326;2023-07-09T00:37:27;3.53;;;3.00;;
3267;SDS011;1646;52.450;13.326;2023-07-09T00:42:25;4.57;;;3.07;;
3267;SDS011;1646;52.450;13.326;2023-07-09T00:47:25;5.07;;;3.80;;
3267;SDS011;1646;52.450;13.326;2023-07-09T00:52:32;4.07;;;3.00;;
3267;SDS011;1646;52.450;13.326;2023-07-09T00:57:34;7.10;;;2.97;;
3267;SDS011;1646;52.450;13.326;2023-07-09T01:02:39;8.13;;;3.03;;
3267;SDS011;1646;52.450;13.326;2023-07-09T01:07:41;4.23;;;3.63;;
3267;SDS011;1646;52.450;13.326;2023-07-09T01:12:43;4.57;;;2.70;;
3267;SDS011;1646;52.450;13.326;2023-07-09T01:17:46;6.67;;;3.13;;
3267;SDS011;1646;52.450;13.326;2023-07-09T01:22:51;4.40;;;3.40;;
3267;SDS011;1646;52.450;13.326;2023-07-09T01:27:51;13.00;;;3.90;;
3267;SDS011;1646;52.450;13.326;2023-07-09T01:32:51;4.63;;;3.33;;
3267;SDS011;1646;52.450;13.326;2023-07-09T01:37:54;12.13;;;3.43;;
3267;SDS011;1646;52.450;13.326;2023-07-09T01:42:54;5.20;;;3.13;;
3267;SDS011;1646;52.450;13.326;2023-07-09T01:47:56;6.60;;;3.40;;
3267;SDS011;1646;52.450;13.326;2023-07-09T01:52:55;4.87;;;3.30;;
3267;SDS011;1646;52.450;13.326;2023-07-09T01:57:55;4.67;;;3.73;;
3267;SDS011;1646;52.450;13.326;2023-07-09T02:02:53;4.50;;;3.07;;
3267;SDS011;1646;52.450;13.326;2023-07-09T02:07:53;5.13;;;3.80;;
3267;SDS011;1646;52.450;13.326;2023-07-09T02:12:53;7.23;;;3.37;;
3267;SDS011;1646;52.450;13.326;2023-07-09T02:17:51;4.30;;;3.27;;
3267;SDS011;1646;52.450;13.326;2023-07-09T02:22:49;8.47;;;4.10;;
3267;SDS011;1646;52.450;13.326;2023-07-09T02:27:48;6.00;;;3.73;;
3267;SDS011;1646;52.450;13.326;2023-07-09T02:32:48;4.50;;;3.00;;
3267;SDS011;1646;52.450;13.326;2023-07-09T02:37:46;4.63;;;3.17;;
3267;SDS011;1646;52.450;13.326;2023-07-09T02:42:46;5.67;;;3.50;;
3267;SDS011;1646;52.450;13.326;2023-07-09T02:47:48;6.53;;;3.63;;
3267;SDS011;1646;52.450;13.326;2023-07-09T02:52:47;6.50;;;3.60;;
3267;SDS011;1646;52.450;13.326;2023-07-09T02:57:45;4.70;;;3.97;;
3267;SDS011;1646;52.450;13.326;2023-07-09T03:02:43;3.60;;;3.30;;
3267;SDS011;1646;52.450;13.326;2023-07-09T03:07:43;6.40;;;3.97;;
3267;SDS011;1646;52.450;13.326;2023-07-09T03:12:41;4.03;;;3.50;;
3267;SDS011;1646;52.450;13.326;2023-07-09T03:17:40;5.97;;;3.73;;
3267;SDS011;1646;52.450;13.326;2023-07-09T03:22:38;4.73;;;3.70;;
3267;SDS011;1646;52.450;13.326;2023-07-09T03:27:38;6.53;;;4.40;;
3267;SDS011;1646;52.450;13.326;2023-07-09T03:32:36;5.80;;;3.57;;
3267;SDS011;1646;52.450;13.326;2023-07-09T03:37:34;4.73;;;3.53;;
3267;SDS011;1646;52.450;13.326;2023-07-09T03:42:34;5.47;;;3.97;;
3267;SDS011;1646;52.450;13.326;2023-07-09T03:47:34;5.73;;;4.00;;
3267;SDS011;1646;52.450;13.326;2023-07-09T03:52:32;9.10;;;4.13;;
3267;SDS011;1646;52.450;13.326;2023-07-09T03:57:30;6.03;;;4.00;;
3267;SDS011;1646;52.450;13.326;2023-07-09T04:02:29;6.90;;;4.10;;
3267;SDS011;1646;52.450;13.326;2023-07-09T04:07:28;6.67;;;4.10;;
3267;SDS011;1646;52.450;13.326;2023-07-09T04:12:27;7.00;;;4.53;;
3267;SDS011;1646;52.450;13.326;2023-07-09T04:17:25;5.10;;;3.80;;
3267;SDS011;1646;52.450;13.326;2023-07-09T04:22:23;5.70;;;3.90;;
3267;SDS011;1646;52.450;13.326;2023-07-09T04:27:23;6.67;;;3.70;;
3267;SDS011;1646;52.450;13.326;2023-07-09T04:32:23;5.93;;;3.90;;
3267;SDS011;1646;52.450;13.326;2023-07-09T04:37:22;10.33;;;4.70;;
3267;SDS011;1646;52.450;13.326;2023-07-09T04:42:20;9.73;;;3.97;;
3267;SDS011;1646;52.450;13.326;2023-07-09T04:47:20;11.33;;;3.63;;
3267;SDS011;1646;52.450;13.326;2023-07-09T04:52:18;5.73;;;3.67;;
3267;SDS011;1646;52.450;13.326;2023-07-09T04:57:16;5.37;;;3.57;;
3267;SDS011;1646;52.450;13.326;2023-07-09T05:02:14;8.63;;;3.80;;
3267;SDS011;1646;52.450;13.326;2023-07-09T05:07:14;4.80;;;3.30;;
3267;SDS011;1646;52.450;13.326;2023-07-09T05:12:12;4.83;;;3.77;;
3267;SDS011;1646;52.450;13.326;2023-07-09T05:17:11;6.73;;;3.70;;
3267;SDS011;1646;52.450;13.326;2023-07-09T05:22:09;6.30;;;3.70;;
3267;SDS011;1646;52.450;13.326;2023-07-09T05:27:09;5.63;;;3.80;;
3267;SDS011;1646;52.450;13.326;2023-07-09T05:32:07;5.50;;;4.10;;
3267;SDS011;1646;52.450;13.326;2023-07-09T05:37:05;4.73;;;3.77;;
3267;SDS011;1646;52.450;13.326;2023-07-09T05:42:04;8.40;;;3.37;;
3267;SDS011;1646;52.450;13.326;2023-07-09T05:47:04;8.17;;;3.63;;
3267;SDS011;1646;52.450;13.326;2023-07-09T05:52:03;3.80;;;3.40;;
3267;SDS011;1646;52.450;13.326;2023-07-09T05:57:01;3.67;;;3.23;;
3267;SDS011;1646;52.450;13.326;2023-07-09T06:01:59;4.47;;;3.27;;
3267;SDS011;1646;52.450;13.326;2023-07-09T06:07:00;8.67;;;3.57;;
3267;SDS011;1646;52.450;13.326;2023-07-09T06:12:00;4.10;;;3.53;;
3267;SDS011;1646;52.450;13.326;2023-07-09T06:16:59;10.40;;;3.77;;
3267;SDS011;1646;52.450;13.326;2023-07-09T06:21:58;7.83;;;3.47;;
3267;SDS011;1646;52.450;13.326;2023-07-09T06:26:57;4.13;;;3.50;;
3267;SDS011;1646;52.450;13.326;2023-07-09T06:31:56;6.93;;;3.90;;
3267;SDS011;1646;52.450;13.326;2023-07-09T06:36:55;4.57;;;3.57;;
3267;SDS011;1646;52.450;13.326;2023-07-09T06:41:54;4.07;;;3.20;;
3267;SDS011;1646;52.450;13.326;2023-07-09T06:47:23;4.93;;;3.50;;
3267;SDS011;1646;52.450;13.326;2023-07-09T06:52:21;4.33;;;3.93;;
3267;SDS011;1646;52.450;13.326;2023-07-09T06:57:19;4.10;;;3.70;;
3267;SDS011;1646;52.450;13.326;2023-07-09T07:02:18;4.13;;;3.73;;
3267;SDS011;1646;52.450;13.326;2023-07-09T07:07:17;4.30;;;3.90;;
3267;SDS011;1646;52.450;13.326;2023-07-09T07:12:22;6.80;;;4.23;;
3267;SDS011;1646;52.450;13.326;2023-07-09T07:17:22;6.77;;;5.33;;
3267;SDS011;1646;52.450;13.326;2023-07-09T07:22:22;4.10;;;3.53;;
3267;SDS011;1646;52.450;13.326;2023-07-09T07:27:20;7.30;;;3.23;;
3267;SDS011;1646;52.450;13.326;2023-07-09T07:32:19;7.27;;;4.20;;
3267;SDS011;1646;52.450;13.326;2023-07-09T07:37:17;5.00;;;4.00;;
3267;SDS011;1646;52.450;13.326;2023-07-09T07:42:18;5.53;;;3.90;;
3267;SDS011;1646;52.450;13.326;2023-07-09T07:47:17;4.20;;;3.80;;
3267;SDS011;1646;52.450;13.326;2023-07-09T07:52:15;8.20;;;4.03;;
3267;SDS011;1646;52.450;13.326;2023-07-09T07:57:13;5.77;;;4.73;;
3267;SDS011;1646;52.450;13.326;2023-07-09T08:02:13;4.67;;;4.27;;
3267;SDS011;1646;52.450;13.326;2023-07-09T08:07:12;5.50;;;4.17;;
3267;SDS011;1646;52.450;13.326;2023-07-09T08:12:10;4.57;;;3.60;;
3267;SDS011;1646;52.450;13.326;2023-07-09T08:17:13;4.23;;;3.83;;
3267;SDS011;1646;52.450;13.326;2023-07-09T08:22:11;10.00;;;3.77;;
3267;SDS011;1646;52.450;13.326;2023-07-09T08:27:09;6.87;;;4.00;;
3267;SDS011;1646;52.450;13.326;2023-07-09T08:32:08;5.73;;;4.50;;
3267;SDS011;1646;52.450;13.326;2023-07-09T08:37:09;4.40;;;4.00;;
3267;SDS011;1646;52.450;13.326;2023-07-09T08:42:09;4.63;;;3.50;;
3267;SDS011;1646;52.450;13.326;2023-07-09T08:47:12;3.97;;;3.57;;
3267;SDS011;1646;52.450;13.326;2023-07-09T08:52:20;5.70;;;4.10;;
3267;SDS011;1646;52.450;13.326;2023-07-09T08:57:23;4.80;;;3.30;;
3267;SDS011;1646;52.450;13.326;2023-07-09T09:02:27;4.33;;;3.37;;
3267;SDS011;1646;52.450;13.326;2023-07-09T09:07:33;3.90;;;3.60;;
3267;SDS011;1646;52.450;13.326;2023-07-09T09:12:40;3.80;;;3.50;;
3267;SDS011;1646;52.450;13.326;2023-07-09T09:17:48;5.90;;;3.70;;
3267;SDS011;1646;52.450;13.326;2023-07-09T09:22:54;4.80;;;3.53;;
3267;SDS011;1646;52.450;13.326;2023-07-09T09:27:56;3.50;;;3.17;;
3267;SDS011;1646;52.450;13.326;2023-07-09T09:32:54;3.47;;;3.17;;
3267;SDS011;1646;52.450;13.326;2023-07-09T09:37:56;3.80;;;3.33;;
3267;SDS011;1646;52.450;13.326;2023-07-09T09:42:56;3.60;;;3.30;;
3267;SDS011;1646;52.450;13.326;2023-07-09T09:47:58;3.43;;;3.13;;
3267;SDS011;1646;52.450;13.326;2023-07-09T09:52:59;4.80;;;2.90;;
3267;SDS011;1646;52.450;13.326;2023-07-09T09:57:58;7.63;;;3.67;;
3267;SDS011;1646;52.450;13.326;2023-07-09T10:02:57;4.10;;;2.90;;
3267;SDS011;1646;52.450;13.326;2023-07-09T10:07:58;4.60;;;3.03;;
3267;SDS011;1646;52.450;13.326;2023-07-09T10:13:05;3.33;;;2.80;;
3267;SDS011;1646;52.450;13.326;2023-07-09T10:18:13;10.23;;;4.03;;
3267;SDS011;1646;52.450;13.326;2023-07-09T10:23:26;3.80;;;3.30;;
3267;SDS011;1646;52.450;13.326;2023-07-09T10:33:53;3.37;;;3.07;;
3267;SDS011;1646;52.450;13.326;2023-07-09T10:39:01;4.27;;;3.37;;
3267;SDS011;1646;52.450;13.326;2023-07-09T10:44:04;4.80;;;3.27;;
3267;SDS011;1646;52.450;13.326;2023-07-09T10:49:09;9.90;;;4.47;;
3267;SDS011;1646;52.450;13.326;2023-07-09T10:54:13;4.50;;;3.77;;
3267;SDS011;1646;52.450;13.326;2023-07-09T10:59:21;4.23;;;3.80;;
3267;SDS011;1646;52.450;13.326;2023-07-09T11:04:26;7.03;;;3.53;;
3267;SDS011;1646;52.450;13.326;2023-07-09T11:09:32;7.13;;;3.63;;
3267;SDS011;1646;52.450;13.326;2023-07-09T11:14:33;3.60;;;3.30;;
3267;SDS011;1646;52.450;13.326;2023-07-09T11:19:40;5.00;;;3.10;;
3267;SDS011;1646;52.450;13.326;2023-07-09T11:24:46;3.60;;;3.30;;
3267;SDS011;1646;52.450;13.326;2023-07-09T11:29:47;3.87;;;3.57;;
3267;SDS011;1646;52.450;13.326;2023-07-09T11:34:53;3.17;;;2.87;;
3267;SDS011;1646;52.450;13.326;2023-07-09T11:39:53;4.17;;;3.47;;
3267;SDS011;1646;52.450;13.326;2023-07-09T11:44:51;3.67;;;3.33;;
3267;SDS011;1646;52.450;13.326;2023-07-09T11:49:55;8.70;;;3.70;;
3267;SDS011;1646;52.450;13.326;2023-07-09T11:54:57;5.73;;;4.10;;
3267;SDS011;1646;52.450;13.326;2023-07-09T12:00:00;3.47;;;3.17;;
3267;SDS011;1646;52.450;13.326;2023-07-09T12:05:07;3.27;;;3.07;;
3267;SDS011;1646;52.450;13.326;2023-07-09T12:10:14;6.13;;;3.40;;
3267;SDS011;1646;52.450;13.326;2023-07-09T12:15:18;4.20;;;3.90;;
3267;SDS011;1646;52.450;13.326;2023-07-09T12:20:17;4.77;;;3.70;;
3267;SDS011;1646;52.450;13.326;2023-07-09T12:25:20;4.33;;;3.60;;
3267;SDS011;1646;52.450;13.326;2023-07-09T12:30:20;3.93;;;3.53;;
3267;SDS011;1646;52.450;13.326;2023-07-09T12:35:19;7.70;;;4.30;;
3267;SDS011;1646;52.450;13.326;2023-07-09T12:40:20;3.73;;;3.43;;
3267;SDS011;1646;52.450;13.326;2023-07-09T12:45:20;4.83;;;3.67;;
3267;SDS011;1646;52.450;13.326;2023-07-09T12:50:21;5.23;;;3.97;;
3267;SDS011;1646;52.450;13.326;2023-07-09T12:55:40;6.80;;;3.50;;
3267;SDS011;1646;52.450;13.326;2023-07-09T13:00:40;4.20;;;3.73;;
3267;SDS011;1646;52.450;13.326;2023-07-09T13:05:38;4.17;;;3.73;;
3267;SDS011;1646;52.450;13.326;2023-07-09T13:10:40;4.17;;;3.87;;
3267;SDS011;1646;52.450;13.326;2023-07-09T13:15:39;5.40;;;4.10;;
3267;SDS011;1646;52.450;13.326;2023-07-09T13:20:58;7.90;;;4.20;;
3267;SDS011;1646;52.450;13.326;2023-07-09T13:25:59;15.83;;;4.57;;
3267;SDS011;1646;52.450;13.326;2023-07-09T13:30:59;6.90;;;4.07;;
3267;SDS011;1646;52.450;13.326;2023-07-09T13:35:59;6.57;;;4.63;;
3267;SDS011;1646;52.450;13.326;2023-07-09T13:41:01;5.03;;;4.53;;
3267;SDS011;1646;52.450;13.326;2023-07-09T13:46:07;4.07;;;3.77;;
3267;SDS011;1646;52.450;13.326;2023-07-09T13:51:11;8.63;;;4.33;;
3267;SDS011;1646;52.450;13.326;2023-07-09T13:56:14;5.30;;;3.83;;
3267;SDS011;1646;52.450;13.326;2023-07-09T14:01:13;4.90;;;4.10;;
3267;SDS011;1646;52.450;13.326;2023-07-09T14:06:16;6.40;;;4.57;;
3267;SDS011;1646;52.450;13.326;2023-07-09T14:11:16;5.97;;;3.90;;
3267;SDS011;1646;52.450;13.326;2023-07-09T14:16:15;8.30;;;4.30;;
3267;SDS011;1646;52.450;13.326;2023-07-09T14:21:14;6.17;;;4.43;;
3267;SDS011;1646;52.450;13.326;2023-07-09T14:26:17;5.40;;;4.40;;
3267;SDS011;1646;52.450;13.326;2023-07-09T14:31:19;5.13;;;4.23;;
3267;SDS011;1646;52.450;13.326;2023-07-09T14:36:22;4.37;;;3.97;;
3267;SDS011;1646;52.450;13.326;2023-07-09T14:41:22;5.47;;;4.30;;
3267;SDS011;1646;52.450;13.326;2023-07-09T14:46:23;4.53;;;3.70;;
3267;SDS011;1646;52.450;13.326;2023-07-09T14:51:22;4.67;;;4.23;;
3267;SDS011;1646;52.450;13.326;2023-07-09T14:56:21;3.97;;;3.67;;
3267;SDS011;1646;52.450;13.326;2023-07-09T15:01:20;4.47;;;4.00;;
3267;SDS011;1646;52.450;13.326;2023-07-09T15:06:21;6.13;;;4.43;;
3267;SDS011;1646;52.450;13.326;2023-07-09T15:11:19;6.77;;;3.80;;
3267;SDS011;1646;52.450;13.326;2023-07-09T15:16:18;7.50;;;4.03;;
3267;SDS011;1646;52.450;13.326;2023-07-09T15:21:17;5.60;;;4.33;;
3267;SDS011;1646;52.450;13.326;2023-07-09T15:26:15;7.10;;;4.53;;
3267;SDS011;1646;52.450;13.326;2023-07-09T15:31:14;4.37;;;3.97;;
3267;SDS011;1646;52.450;13.326;2023-07-09T15:36:13;4.37;;;4.00;;
3267;SDS011;1646;52.450;13.326;2023-07-09T15:41:13;5.30;;;4.30;;
3267;SDS011;1646;52.450;13.326;2023-07-09T15:46:15;4.97;;;4.40;;
3267;SDS011;1646;52.450;13.326;2023-07-09T15:51:17;4.83;;;4.37;;
3267;SDS011;1646;52.450;13.326;2023-07-09T15:56:18;5.53;;;4.03;;
3267;SDS011;1646;52.450;13.326;2023-07-09T16:01:21;9.50;;;4.33;;
3267;SDS011;1646;52.450;13.326;2023-07-09T16:06:23;7.87;;;3.77;;
3267;SDS011;1646;52.450;13.326;2023-07-09T16:11:22;5.10;;;4.20;;
3267;SDS011;1646;52.450;13.326;2023-07-09T16:16:22;4.13;;;3.70;;
3267;SDS011;1646;52.450;13.326;2023-07-09T16:21:25;6.90;;;4.00;;
3267;SDS011;1646;52.450;13.326;2023-07-09T16:26:25;5.03;;;4.40;;
3267;SDS011;1646;52.450;13.326;2023-07-09T16:31:25;4.80;;;4.30;;
3267;SDS011;1646;52.450;13.326;2023-07-09T16:36:28;7.80;;;4.77;;
3267;SDS011;1646;52.450;13.326;2023-07-09T16:41:29;8.20;;;5.33;;
3267;SDS011;1646;52.450;13.326;2023-07-09T16:46:29;9.93;;;5.47;;
3267;SDS011;1646;52.450;13.326;2023-07-09T16:51:32;4.43;;;4.03;;
3267;SDS011;1646;52.450;13.326;2023-07-09T16:56:32;7.67;;;4.97;;
3267;SDS011;1646;52.450;13.326;2023-07-09T17:01:33;7.90;;;4.57;;
3267;SDS011;1646;52.450;13.326;2023-07-09T17:06:35;10.23;;;4.27;;
3267;SDS011;1646;52.450;13.326;2023-07-09T17:11:36;5.70;;;3.90;;
3267;SDS011;1646;52.450;13.326;2023-07-09T17:16:37;4.97;;;4.47;;
3267;SDS011;1646;52.450;13.326;2023-07-09T17:21:41;9.10;;;4.80;;
3267;SDS011;1646;52.450;13.326;2023-07-09T17:26:44;5.80;;;4.43;;
3267;SDS011;1646;52.450;13.326;2023-07-09T17:31:44;4.57;;;4.17;;
3267;SDS011;1646;52.450;13.326;2023-07-09T17:36:47;7.83;;;4.77;;
3267;SDS011;1646;52.450;13.326;2023-07-09T17:41:47;5.57;;;4.57;;
3267;SDS011;1646;52.450;13.326;2023-07-09T17:46:47;7.67;;;4.43;;
3267;SDS011;1646;52.450;13.326;2023-07-09T17:51:48;8.60;;;4.80;;
3267;SDS011;1646;52.450;13.326;2023-07-09T17:56:47;9.73;;;5.07;;
3267;SDS011;1646;52.450;13.326;2023-07-09T18:01:47;8.97;;;4.63;;
3267;SDS011;1646;52.450;13.326;2023-07-09T18:06:53;5.43;;;4.37;;
3267;SDS011;1646;52.450;13.326;2023-07-09T18:11:52;9.30;;;4.90;;
3267;SDS011;1646;52.450;13.326;2023-07-09T18:16:52;5.77;;;4.50;;
3267;SDS011;1646;52.450;13.326;2023-07-09T18:21:51;5.40;;;4.57;;
3267;SDS011;1646;52.450;13.326;2023-07-09T18:26:51;11.20;;;5.27;;
3267;SDS011;1646;52.450;13.326;2023-07-09T18:31:55;6.20;;;5.23;;
3267;SDS011;1646;52.450;13.326;2023-07-09T18:36:57;5.90;;;4.50;;
3267;SDS011;1646;52.450;13.326;2023-07-09T18:41:59;6.23;;;4.67;;
3267;SDS011;1646;52.450;13.326;2023-07-09T18:46:59;5.93;;;4.33;;
3267;SDS011;1646;52.450;13.326;2023-07-09T18:51:59;8.37;;;4.77;;
3267;SDS011;1646;52.450;13.326;2023-07-09T18:56:57;6.33;;;4.40;;
3267;SDS011;1646;52.450;13.326;2023-07-09T19:01:55;7.00;;;4.97;;
3267;SDS011;1646;52.450;13.326;2023-07-09T19:06:54;9.43;;;5.83;;
3267;SDS011;1646;52.450;13.326;2023-07-09T19:11:53;9.07;;;5.17;;
3267;SDS011;1646;52.450;13.326;2023-07-09T19:17:06;8.70;;;5.27;;
3267;SDS011;1646;52.450;13.326;2023-07-09T19:22:09;8.13;;;5.50;;
3267;SDS011;1646;52.450;13.326;2023-07-09T19:27:11;5.97;;;5.27;;
3267;SDS011;1646;52.450;13.326;2023-07-09T19:32:12;8.20;;;4.97;;
3267;SDS011;1646;52.450;13.326;2023-07-09T19:37:15;7.27;;;5.90;;
3267;SDS011;1646;52.450;13.326;2023-07-09T19:42:21;8.60;;;5.23;;
3267;SDS011;1646;52.450;13.326;2023-07-09T19:47:21;9.03;;;5.60;;
3267;SDS011;1646;52.450;13.326;2023-07-09T19:52:21;10.20;;;5.70;;
3267;SDS011;1646;52.450;13.326;2023-07-09T19:57:20;7.13;;;5.17;;
3267;SDS011;1646;52.450;13.326;2023-07-09T20:02:20;9.47;;;5.87;;
3267;SDS011;1646;52.450;13.326;2023-07-09T20:07:21;10.40;;;4.90;;
3267;SDS011;1646;52.450;13.326;2023-07-09T20:12:21;7.40;;;4.83;;
3267;SDS011;1646;52.450;13.326;2023-07-09T20:17:23;9.60;;;5.80;;
3267;SDS011;1646;52.450;13.326;2023-07-09T20:22:22;5.63;;;4.67;;
3267;SDS011;1646;52.450;13.326;2023-07-09T20:27:23;8.57;;;4.90;;
3267;SDS011;1646;52.450;13.326;2023-07-09T20:32:22;10.33;;;5.63;;
3267;SDS011;1646;52.450;13.326;2023-07-09T20:37:26;6.53;;;5.63;;
3267;SDS011;1646;52.450;13.326;2023-07-09T20:42:25;5.60;;;5.00;;
3267;SDS011;1646;52.450;13.326;2023-07-09T20:47:24;8.20;;;5.13;;
3267;SDS011;1646;52.450;13.326;2023-07-09T20:52:22;7.13;;;4.70;;
3267;SDS011;1646;52.450;13.326;2023-07-09T20:57:22;7.63;;;4.70;;
3267;SDS011;1646;52.450;13.326;2023-07-09T21:02:22;9.60;;;4.53;;
3267;SDS011;1646;52.450;13.326;2023-07-09T21:07:22;12.73;;;5.70;;
3267;SDS011;1646;52.450;13.326;2023-07-09T21:12:21;9.90;;;5.20;;
3267;SDS011;1646;52.450;13.326;2023-07-09T21:17:20;9.33;;;5.57;;
3267;SDS011;1646;52.450;13.326;2023-07-09T21:22:23;6.30;;;4.40;;
3267;SDS011;1646;52.450;13.326;2023-07-09T21:27:22;6.10;;;4.53;;
3267;SDS011;1646;52.450;13.326;2023-07-09T21:32:22;10.47;;;5.57;;
3267;SDS011;1646;52.450;13.326;2023-07-09T21:37:26;8.93;;;5.33;;
3267;SDS011;1646;52.450;13.326;2023-07-09T21:42:24;7.37;;;4.87;;
3267;SDS011;1646;52.450;13.326;2023-07-09T21:47:23;6.47;;;4.73;;
3267;SDS011;1646;52.450;13.326;2023-07-09T21:52:24;8.90;;;5.30;;
3267;SDS011;1646;52.450;13.326;2023-07-09T21:57:22;9.20;;;5.33;;
3267;SDS011;1646;52.450;13.326;2023-07-09T22:02:21;8.63;;;5.13;;
3267;SDS011;1646;52.450;13.326;2023-07-09T22:07:27;8.87;;;4.93;;
3267;SDS011;1646;52.450;13.326;2023-07-09T22:12:27;11.70;;;6.20;;
3267;SDS011;1646;52.450;13.326;2023-07-09T22:17:26;6.83;;;5.27;;
3267;SDS011;1646;52.450;13.326;2023-07-09T22:22:25;11.73;;;4.90;;
3267;SDS011;1646;52.450;13.326;2023-07-09T22:27:25;8.53;;;5.10;;
3267;SDS011;1646;52.450;13.326;2023-07-09T22:32:24;8.93;;;5.20;;
3267;SDS011;1646;52.450;13.326;2023-07-09T22:37:28;9.90;;;5.07;;
3267;SDS011;1646;52.450;13.326;2023-07-09T22:42:26;7.17;;;4.73;;
3267;SDS011;1646;52.450;13.326;2023-07-09T22:47:26;7.10;;;5.80;;
3267;SDS011;1646;52.450;13.326;2023-07-09T22:52:25;11.37;;;5.90;;
3267;SDS011;1646;52.450;13.326;2023-07-09T22:57:24;13.07;;;5.40;;
3267;SDS011;1646;52.450;13.326;2023-07-09T23:02:22;6.57;;;4.90;;
3267;SDS011;1646;52.450;13.326;2023-07-09T23:07:23;6.70;;;5.00;;
3267;SDS011;1646;52.450;13.326;2023-07-09T23:12:22;13.23;;;5.83;;
3267;SDS011;1646;52.450;13.326;2023-07-09T23:17:22;7.33;;;5.90;;
3267;SDS011;1646;52.450;13.326;2023-07-09T23:22:20;6.30;;;5.50;;
3267;SDS011;1646;52.450;13.326;2023-07-09T23:27:19;10.40;;;5.60;;
3267;SDS011;1646;52.450;13.326;2023-07-09T23:32:18;6.47;;;5.27;;
3267;SDS011;1646;52.450;13.326;2023-07-09T23:37:19;8.30;;;5.23;;
3267;SDS011;1646;52.450;13.326;2023-07-09T23:42:17;9.27;;;5.10;;
3267;SDS011;1646;52.450;13.326;2023-07-09T23:47:16;6.83;;;5.67;;
3267;SDS011;1646;52.450;13.326;2023-07-09T23:52:15;8.17;;;5.43;;
3267;SDS011;1646;52.450;13.326;2023-07-09T23:57:14;7.00;;;5.30;;
